Time;durP1;ratioP1;P1;durP2;ratioP2;P2;SDS_P1;SDS_P2;PMS_P1;PMS_P2;Temp;Humidity;BMP_temperature;BMP_pressure;BME280_temperature;BME280_humidity;BME280_pressure;Samples;Min_cycle;Max_cycle;Signal;HPM_P1;HPM_P2
2020/12/22 00:01:40;;;;;;;1.42;1.33;;;;;;;11.04;90.11;98741.13;6038719;23;20159;-89
2020/12/22 00:04:06;;;;;;;1.60;1.50;;;;;;;11.09;89.59;98743.47;6011479;23;20204;-88
2020/12/22 00:06:32;;;;;;;1.80;1.70;;;;;;;11.08;89.37;98736.38;5986735;23;20185;-87
2020/12/22 00:08:58;;;;;;;1.60;1.45;;;;;;;11.16;89.63;98731.28;6008297;23;20217;-88
2020/12/22 00:11:24;;;;;;;1.88;1.75;;;;;;;11.21;89.32;98747.94;6009296;23;20213;-88
2020/12/22 00:13:50;;;;;;;1.70;1.60;;;;;;;11.20;89.11;98746.22;6034412;23;20184;-86
2020/12/22 00:16:17;;;;;;;2.88;1.80;;;;;;;11.26;89.14;98740.41;6036878;23;20211;-86
2020/12/22 00:18:44;;;;;;;1.70;1.50;;;;;;;11.24;89.06;98743.19;6014383;23;20728;-86
2020/12/22 00:21:10;;;;;;;1.52;1.40;;;;;;;11.24;89.38;98728.91;6060546;23;20204;-87
2020/12/22 00:23:36;;;;;;;1.50;1.40;;;;;;;11.26;89.29;98740.41;6013684;23;20196;-87
2020/12/22 00:26:03;;;;;;;3.22;1.52;;;;;;;11.22;89.74;98728.13;6034399;23;20156;-84
2020/12/22 00:28:30;;;;;;;1.58;1.38;;;;;;;11.28;89.77;98735.75;6037935;23;20176;-86
2020/12/22 00:30:56;;;;;;;1.50;1.10;;;;;;;11.27;89.18;98725.97;6035934;23;20192;-85
2020/12/22 00:37:10;;;;;;;1.52;1.42;;;;;;;11.23;89.92;98732.56;6058302;23;20205;-88
2020/12/22 00:39:38;;;;;;;1.35;1.20;;;;;;;11.24;90.13;98720.81;6062077;23;20189;-89
2020/12/22 00:42:07;;;;;;;1.42;1.33;;;;;;;11.27;89.63;98732.22;6062163;23;20208;-88
2020/12/22 00:44:33;;;;;;;1.20;1.10;;;;;;;11.35;89.20;98742.38;6039302;23;20204;-88
2020/12/22 00:47:05;;;;;;;1.50;1.20;;;;;;;11.39;88.84;98741.19;6063411;23;20157;-87
2020/12/22 00:49:31;;;;;;;1.73;1.20;;;;;;;11.47;89.02;98746.84;6091556;23;20198;-87
2020/12/22 00:51:59;;;;;;;1.40;1.30;;;;;;;11.49;88.63;98734.16;6090323;23;20210;-87
2020/12/22 00:54:27;;;;;;;1.40;1.30;;;;;;;11.53;88.54;98732.94;6063363;23;20215;-88
2020/12/22 00:56:55;;;;;;;2.10;1.30;;;;;;;11.51;88.91;98735.75;6063234;23;20192;-87
2020/12/22 00:59:39;;;;;;;1.33;1.20;;;;;;;11.48;88.62;98743.19;6086010;23;20204;-90
2020/12/22 01:02:06;;;;;;;1.50;1.23;;;;;;;11.45;88.42;98738.03;6047643;23;20161;-90
2020/12/22 01:04:33;;;;;;;1.30;1.13;;;;;;;11.48;88.51;98735.97;5984238;23;20189;-88
2020/12/22 01:07:01;;;;;;;1.80;1.40;;;;;;;11.51;88.71;98740.28;6065873;23;20216;-89
2020/12/22 01:09:27;;;;;;;1.50;1.35;;;;;;;11.45;89.01;98754.19;6047596;23;20197;-88
2020/12/22 01:11:53;;;;;;;1.88;1.30;;;;;;;11.42;89.30;98751.75;6041626;23;20222;-89
2020/12/22 01:14:29;;;;;;;1.20;1.10;;;;;;;11.44;89.24;98750.63;6082568;23;20208;-89
2020/12/22 01:16:55;;;;;;;1.30;1.10;;;;;;;11.44;89.55;98755.19;6037225;23;20150;-89
2020/12/22 01:19:21;;;;;;;1.27;1.10;;;;;;;11.33;90.01;98750.59;6010721;23;20189;-87
2020/12/22 01:21:54;;;;;;;1.30;1.00;;;;;;;11.37;89.92;98743.16;6051878;23;20209;-87
2020/12/22 01:24:25;;;;;;;1.13;1.00;;;;;;;11.45;89.94;98749.69;6044100;23;20767;-88
2020/12/22 01:26:55;;;;;;;1.30;0.90;;;;;;;11.44;89.83;98730.94;6036127;23;20173;-87
2020/12/22 01:29:22;;;;;;;1.33;1.10;;;;;;;11.46;90.20;98753.22;6038248;23;20212;-87
2020/12/22 01:31:49;;;;;;;1.67;0.90;;;;;;;11.45;90.01;98751.50;6040464;23;20168;-88
2020/12/22 01:34:15;;;;;;;1.10;0.90;;;;;;;11.49;89.72;98758.38;6060713;23;20208;-88
2020/12/22 01:36:44;;;;;;;1.10;0.90;;;;;;;11.48;89.93;98751.25;6084207;23;20192;-87
2020/12/22 01:39:11;;;;;;;1.10;0.80;;;;;;;11.47;89.69;98739.66;6049127;23;20238;-87
2020/12/22 01:41:37;;;;;;;1.30;0.90;;;;;;;11.45;90.34;98751.50;6018769;23;20209;-87
2020/12/22 01:44:16;;;;;;;1.13;0.90;;;;;;;11.47;90.33;98733.41;5993314;23;20265;-87
2020/12/22 01:46:48;;;;;;;1.40;1.20;;;;;;;11.46;90.59;98737.94;6045512;23;20527;-87
2020/12/22 01:49:21;;;;;;;1.20;0.90;;;;;;;11.44;90.30;98739.88;6046711;23;20204;-87
2020/12/22 01:51:48;;;;;;;1.50;1.10;;;;;;;11.44;90.25;98741.72;6046625;23;20211;-87
2020/12/22 01:54:16;;;;;;;1.30;1.00;;;;;;;11.49;90.23;98742.25;6047394;23;20216;-87
2020/12/22 01:56:44;;;;;;;1.40;1.20;;;;;;;11.50;89.93;98738.56;6081090;23;20263;-87
2020/12/22 01:59:12;;;;;;;1.75;1.02;;;;;;;11.52;90.24;98731.22;6076671;23;20176;-87
2020/12/22 02:01:39;;;;;;;1.10;0.90;;;;;;;11.57;90.10;98739.81;6078868;23;20184;-87
2020/12/22 02:04:07;;;;;;;1.15;1.05;;;;;;;11.62;89.92;98751.13;6053303;23;20219;-87
2020/12/22 02:06:34;;;;;;;1.90;1.02;;;;;;;11.58;90.17;98731.66;6053446;23;20208;-87
2020/12/22 02:09:06;;;;;;;2.72;1.35;;;;;;;11.61;89.63;98735.94;6061583;23;20279;-87
2020/12/22 02:11:35;;;;;;;1.15;0.93;;;;;;;11.56;89.96;98748.88;6070108;23;20255;-87
2020/12/22 02:14:04;;;;;;;1.40;1.23;;;;;;;11.55;90.58;98753.38;6045166;23;20199;-88
2020/12/22 02:16:30;;;;;;;1.20;1.00;;;;;;;11.54;90.57;98750.81;6059383;23;20198;-87
2020/12/22 02:18:58;;;;;;;4.35;1.17;;;;;;;11.52;90.59;98752.75;6080238;23;20268;-87
2020/12/22 02:21:27;;;;;;;1.35;1.00;;;;;;;11.55;90.53;98748.00;6100136;23;20215;-87
2020/12/22 02:24:03;;;;;;;1.35;1.00;;;;;;;11.60;90.34;98743.16;6074001;23;20212;-87
2020/12/22 02:26:31;;;;;;;1.60;1.27;;;;;;;11.57;90.35;98747.91;6070885;23;20211;-87
2020/12/22 02:28:58;;;;;;;1.40;1.13;;;;;;;11.61;90.45;98742.19;6069623;23;20493;-87
2020/12/22 02:31:25;;;;;;;1.30;1.20;;;;;;;11.64;90.47;98751.88;6073128;23;20168;-87
2020/12/22 02:33:56;;;;;;;1.30;1.05;;;;;;;11.63;89.99;98740.22;6065122;23;20209;-86
2020/12/22 02:36:22;;;;;;;1.25;1.10;;;;;;;11.64;89.93;98738.41;6041554;23;20212;-87
2020/12/22 02:38:49;;;;;;;1.30;1.10;;;;;;;11.66;89.83;98747.22;6057233;23;20195;-87
2020/12/22 02:41:19;;;;;;;1.48;1.10;;;;;;;11.67;90.10;98730.06;6071210;23;20212;-86
2020/12/22 02:43:46;;;;;;;1.77;1.27;;;;;;;11.67;90.07;98725.56;6027106;23;20200;-87
2020/12/22 02:46:12;;;;;;;2.05;1.00;;;;;;;11.72;90.31;98727.91;6048735;23;20267;-86
2020/12/22 02:48:38;;;;;;;1.30;1.20;;;;;;;11.73;89.39;98726.91;6071730;23;20203;-86
2020/12/22 02:51:05;;;;;;;1.98;1.20;;;;;;;11.79;89.42;98727.31;6039860;23;20204;-87
2020/12/22 02:53:32;;;;;;;1.60;1.10;;;;;;;11.80;89.41;98736.25;6085011;23;20208;-87
2020/12/22 02:55:58;;;;;;;1.50;1.20;;;;;;;11.78;89.76;98732.81;6080203;23;20212;-88
2020/12/22 02:58:25;;;;;;;1.42;1.10;;;;;;;11.80;89.72;98725.47;6094267;23;20184;-85
2020/12/22 03:01:09;;;;;;;1.30;1.20;;;;;;;11.82;89.84;98739.69;6039689;23;20263;31
2020/12/22 03:03:35;;;;;;;2.47;1.30;;;;;;;11.82;89.66;98745.94;6066128;23;20203;-86
2020/12/22 03:06:02;;;;;;;1.40;1.27;;;;;;;11.88;89.70;98760.78;6069629;23;20204;-86
2020/12/22 03:08:29;;;;;;;1.30;1.05;;;;;;;11.89;88.85;98746.34;6059916;23;20191;-87
2020/12/22 03:10:56;;;;;;;1.55;1.10;;;;;;;11.87;88.87;98738.34;6093303;23;20180;-87
2020/12/22 03:13:22;;;;;;;1.20;1.10;;;;;;;11.93;89.12;98737.00;6091895;23;20191;-87
2020/12/22 03:15:48;;;;;;;1.20;1.00;;;;;;;11.93;88.95;98742.41;6092027;23;20191;-87
2020/12/22 03:18:18;;;;;;;1.40;1.23;;;;;;;11.98;89.07;98737.53;6100727;23;20236;-87
2020/12/22 03:20:47;;;;;;;1.20;1.10;;;;;;;11.88;88.88;98740.06;6060570;23;20196;-87
2020/12/22 03:23:15;;;;;;;1.23;1.10;;;;;;;11.94;89.13;98733.38;6080354;23;20204;-87
2020/12/22 03:25:54;;;;;;;1.30;1.15;;;;;;;11.92;89.02;98740.69;6049923;23;21488;-86
2020/12/22 03:28:20;;;;;;;5.25;1.20;;;;;;;12.00;88.86;98735.59;6081787;23;20247;-87
2020/12/22 03:30:49;;;;;;;1.20;1.10;;;;;;;11.95;88.80;98740.47;6095787;23;20274;-86
2020/12/22 03:33:15;;;;;;;2.53;1.20;;;;;;;11.96;89.00;98739.50;6062133;23;20240;-85
2020/12/22 03:35:44;;;;;;;1.30;1.20;;;;;;;11.99;89.23;98736.53;6055312;23;20212;-86
2020/12/22 03:38:10;;;;;;;1.20;1.10;;;;;;;11.99;89.30;98731.16;6057248;23;20183;-86
2020/12/22 03:40:36;;;;;;;1.73;1.60;;;;;;;11.96;89.61;98747.56;6063333;23;20176;-86
2020/12/22 03:43:02;;;;;;;1.40;1.30;;;;;;;11.95;89.70;98745.88;6087245;23;20254;-86
2020/12/22 03:45:29;;;;;;;6.07;1.20;;;;;;;11.97;89.79;98746.59;6045039;23;20259;-87
2020/12/22 03:47:57;;;;;;;1.40;1.30;;;;;;;12.02;89.67;98747.94;6035036;23;20236;-86
2020/12/22 03:50:24;;;;;;;1.30;1.20;;;;;;;12.02;89.82;98741.72;6041523;23;20212;-86
2020/12/22 03:52:52;;;;;;;1.65;1.17;;;;;;;12.06;89.69;98737.81;6095068;23;20159;-86
2020/12/22 03:55:19;;;;;;;1.40;1.30;;;;;;;12.01;89.55;98731.91;6096354;23;20195;-86
2020/12/22 03:57:47;;;;;;;1.20;1.10;;;;;;;11.97;89.79;98733.13;6063523;23;20220;-86
2020/12/22 04:00:16;;;;;;;1.40;1.20;;;;;;;11.95;90.08;98727.00;6074180;23;20215;-87
2020/12/22 04:02:43;;;;;;;1.70;1.20;;;;;;;11.96;89.79;98715.25;6063085;23;20195;-87
2020/12/22 04:05:10;;;;;;;1.10;1.00;;;;;;;11.99;89.73;98726.63;6092699;23;20183;-88
2020/12/22 04:07:36;;;;;;;1.25;1.08;;;;;;;12.02;89.02;98712.91;6057203;23;20171;-87
2020/12/22 04:10:05;;;;;;;2.60;0.90;;;;;;;12.02;88.93;98720.16;6073290;23;20218;-87
2020/12/22 04:12:32;;;;;;;2.85;1.00;;;;;;;12.06;88.53;98725.19;6054720;23;20215;-87
2020/12/22 04:14:59;;;;;;;1.08;0.77;;;;;;;12.05;88.61;98714.50;6019278;23;20212;-90
2020/12/22 04:17:25;;;;;;;1.08;0.90;;;;;;;12.12;88.28;98704.97;6020838;23;20214;-86
2020/12/22 04:19:51;;;;;;;1.30;0.90;;;;;;;12.03;88.62;98717.34;6046547;23;20175;-86
2020/12/22 04:22:18;;;;;;;1.20;1.00;;;;;;;12.08;88.80;98711.59;6070463;23;20315;-86
2020/12/22 04:24:44;;;;;;;1.20;0.90;;;;;;;12.08;88.89;98715.13;6071259;23;20782;-86
2020/12/22 04:27:10;;;;;;;1.35;1.00;;;;;;;12.03;89.23;98727.25;6047141;23;20211;-86
2020/12/22 04:33:03;;;;;;;1.00;0.80;;;;;;;12.04;89.51;98719.06;6082509;23;20214;-86
2020/12/22 04:35:29;;;;;;;1.00;0.77;;;;;;;12.02;89.49;98720.16;6019829;23;20208;-86
2020/12/22 04:37:55;;;;;;;1.00;0.80;;;;;;;12.01;89.68;98723.84;6046808;23;20168;-86
2020/12/22 04:40:22;;;;;;;1.00;0.80;;;;;;;12.05;89.49;98728.00;6049011;23;20207;-86
2020/12/22 04:42:49;;;;;;;1.00;0.63;;;;;;;12.02;89.31;98729.09;6100118;23;20211;-85
2020/12/22 04:45:16;;;;;;;1.10;0.80;;;;;;;11.98;89.70;98733.00;6059423;23;20208;-87
2020/12/22 04:47:46;;;;;;;1.00;0.80;;;;;;;11.97;89.55;98736.69;6041231;23;20206;-86
2020/12/22 04:50:14;;;;;;;1.10;0.70;;;;;;;12.02;89.78;98742.56;6054491;23;20175;-85
2020/12/22 04:52:41;;;;;;;1.00;0.70;;;;;;;11.99;89.70;98737.41;6085804;23;20167;-86
2020/12/22 04:55:10;;;;;;;1.27;0.75;;;;;;;11.96;89.62;98731.41;6051192;23;20256;-86
2020/12/22 04:57:46;;;;;;;0.90;0.65;;;;;;;11.96;89.92;98742.19;6077403;23;20728;-87
2020/12/22 05:00:13;;;;;;;1.05;0.70;;;;;;;11.93;90.14;98743.28;6047768;23;20282;-86
2020/12/22 05:02:42;;;;;;;0.90;0.70;;;;;;;11.94;90.34;98745.00;6031235;23;20208;-86
2020/12/22 05:05:10;;;;;;;1.17;0.80;;;;;;;11.94;90.21;98763.84;6051674;23;20230;-86
2020/12/22 05:07:39;;;;;;;1.10;0.70;;;;;;;11.91;90.35;98760.53;6082989;23;20242;-86
2020/12/22 05:10:11;;;;;;;2.35;0.88;;;;;;;11.94;90.70;98765.72;6056598;23;20202;-87
2020/12/22 05:12:41;;;;;;;1.15;0.70;;;;;;;11.96;89.78;98763.75;6058167;23;20588;-86
2020/12/22 05:15:10;;;;;;;1.00;0.80;;;;;;;11.88;90.15;98775.09;6046989;23;20219;-87
2020/12/22 05:17:44;;;;;;;1.13;0.80;;;;;;;11.90;90.42;98764.22;6028416;23;20238;-88
2020/12/22 05:20:15;;;;;;;1.33;0.90;;;;;;;11.87;90.27;98759.06;6052314;23;20192;-87
2020/12/22 05:22:45;;;;;;;2.88;0.80;;;;;;;11.88;90.83;98769.72;6082574;23;20207;-87
2020/12/22 05:25:17;;;;;;;1.02;0.80;;;;;;;11.94;90.45;98777.31;6079847;23;20199;-87
2020/12/22 05:27:47;;;;;;;1.10;0.90;;;;;;;11.94;90.66;98779.19;6053803;23;20210;-87
2020/12/22 05:30:16;;;;;;;1.00;0.80;;;;;;;12.01;90.72;98783.97;6027251;23;20266;-87
2020/12/22 05:32:43;;;;;;;1.08;0.80;;;;;;;11.97;90.88;98790.56;6049259;23;20602;-88
2020/12/22 05:35:13;;;;;;;1.00;0.80;;;;;;;11.97;90.72;98787.00;6070978;23;20285;-87
2020/12/22 05:37:40;;;;;;;1.00;0.80;;;;;;;11.99;90.74;98776.97;6073177;23;20175;-88
2020/12/22 05:40:09;;;;;;;1.50;1.20;;;;;;;12.01;90.77;98778.56;6058806;23;20234;-87
2020/12/22 05:42:37;;;;;;;1.10;0.93;;;;;;;12.06;90.44;98779.09;6077259;23;20206;-86
2020/12/22 05:45:08;;;;;;;1.75;1.00;;;;;;;12.06;90.19;98771.00;6056709;23;20218;-86
2020/12/22 05:47:35;;;;;;;1.00;0.82;;;;;;;12.06;90.54;98780.94;6059813;23;20211;-86
2020/12/22 05:50:03;;;;;;;2.25;1.10;;;;;;;12.07;90.13;98777.25;6081102;23;20171;-87
2020/12/22 05:52:30;;;;;;;1.20;0.95;;;;;;;12.13;90.04;98771.41;6063358;23;20163;-86
2020/12/22 05:54:59;;;;;;;1.85;0.90;;;;;;;12.16;89.98;98788.19;6062005;23;20218;-86
2020/12/22 05:57:30;;;;;;;1.10;0.90;;;;;;;12.12;89.95;98772.34;6066368;23;20187;-84
2020/12/22 05:59:57;;;;;;;1.08;0.88;;;;;;;12.11;90.03;98784.09;6056195;23;20208;-87
2020/12/22 06:02:31;;;;;;;1.00;0.80;;;;;;;12.17;90.04;98783.63;6055969;23;20208;-87
2020/12/22 06:05:02;;;;;;;1.10;1.00;;;;;;;12.13;90.32;98788.41;6080155;23;20192;-85
2020/12/22 06:07:29;;;;;;;1.60;1.20;;;;;;;12.19;90.07;98781.72;6064072;23;20183;-87
2020/12/22 06:09:57;;;;;;;1.20;1.10;;;;;;;12.19;89.86;98789.78;6008295;23;20208;-85
2020/12/22 06:12:25;;;;;;;1.15;1.05;;;;;;;12.24;89.64;98796.53;6050396;23;20188;-85
2020/12/22 06:14:53;;;;;;;1.40;1.13;;;;;;;12.20;89.62;98780.72;6126209;23;20219;-86
2020/12/22 06:17:20;;;;;;;1.55;1.42;;;;;;;12.24;89.38;98792.97;6095333;23;20195;-86
2020/12/22 06:19:47;;;;;;;1.75;1.30;;;;;;;12.30;89.31;98795.19;6111609;23;20190;-87
2020/12/22 06:22:18;;;;;;;1.40;0.93;;;;;;;12.36;88.88;98795.59;6099279;23;20203;-86
2020/12/22 06:24:51;;;;;;;3.45;1.20;;;;;;;12.37;88.94;98801.81;6098757;23;20218;-86
2020/12/22 06:27:19;;;;;;;1.10;0.90;;;;;;;12.41;89.01;98797.91;6104844;23;20311;-87
2020/12/22 06:30:15;;;;;;;1.85;1.10;;;;;;;12.29;89.36;98790.78;6068042;22;20237;-86
2020/12/22 06:32:42;;;;;;;1.30;1.20;;;;;;;12.36;89.25;98779.41;6076792;23;20192;-86
2020/12/22 06:35:31;;;;;;;1.50;1.40;;;;;;;12.40;89.33;98788.13;6095797;23;20208;-86
2020/12/22 06:37:58;;;;;;;2.38;1.60;;;;;;;12.38;89.71;98782.84;6050544;23;20723;-87
2020/12/22 06:40:52;;;;;;;1.30;1.20;;;;;;;12.35;89.61;98793.00;6044225;23;20170;-87
2020/12/22 06:43:37;;;;;;;1.80;1.70;;;;;;;12.37;89.44;98794.59;6051345;23;20228;-88
2020/12/22 06:46:06;;;;;;;1.52;1.42;;;;;;;12.40;88.86;98785.41;6078033;23;20216;-87
2020/12/22 06:48:43;;;;;;;1.50;1.40;;;;;;;12.40;89.25;98790.81;6055520;23;20681;-87
2020/12/22 06:51:31;;;;;;;2.20;1.45;;;;;;;12.41;89.30;98792.53;6039389;23;20213;-87
2020/12/22 06:53:59;;;;;;;1.90;1.80;;;;;;;12.36;89.53;98789.31;6034361;23;20222;-87
2020/12/22 06:56:38;;;;;;;1.38;1.27;;;;;;;12.40;89.27;98790.81;6057287;23;20233;-87
2020/12/22 06:59:05;;;;;;;1.60;1.50;;;;;;;12.39;89.45;98789.94;6011521;23;20197;-87
2020/12/22 07:01:33;;;;;;;3.72;1.60;;;;;;;12.43;89.31;98792.25;6088884;23;20252;-87
2020/12/22 07:04:19;;;;;;;2.03;1.50;;;;;;;12.39;89.62;98789.09;6086546;23;20233;-87
2020/12/22 07:07:02;;;;;;;1.17;1.08;;;;;;;12.39;89.62;98789.09;6016922;23;20296;-87
2020/12/22 07:09:34;;;;;;;1.35;1.25;;;;;;;12.33;90.13;98803.06;6076538;23;20292;-87
2020/12/22 07:12:11;;;;;;;1.40;1.20;;;;;;;12.27;90.22;98795.44;6038559;23;20213;-87
2020/12/22 07:14:46;;;;;;;1.40;1.10;;;;;;;12.32;90.50;98798.63;6084920;23;20291;-87
2020/12/22 07:17:17;;;;;;;1.83;1.10;;;;;;;12.34;90.30;98792.13;6036029;23;20165;-87
2020/12/22 07:19:48;;;;;;;1.20;1.10;;;;;;;12.31;90.12;98787.00;6041280;23;20685;-87
2020/12/22 07:22:27;;;;;;;1.40;1.10;;;;;;;12.31;90.22;98791.50;5987156;24;20241;-86
2020/12/22 07:24:53;;;;;;;1.40;1.23;;;;;;;12.31;90.46;98802.28;6008927;23;20229;-87
2020/12/22 07:27:20;;;;;;;1.20;1.10;;;;;;;12.27;90.49;98790.03;6071872;23;20284;-87
2020/12/22 07:29:46;;;;;;;1.10;0.88;;;;;;;12.34;90.09;98796.69;6031410;23;20281;-86
2020/12/22 07:32:13;;;;;;;1.33;1.20;;;;;;;12.32;90.03;98799.47;6059511;23;20189;-87
2020/12/22 07:34:39;;;;;;;1.27;1.17;;;;;;;12.33;90.29;98808.44;6087247;23;20193;-87
2020/12/22 07:37:08;;;;;;;1.30;1.20;;;;;;;12.39;89.84;98816.06;6056151;23;20225;-87
2020/12/22 07:39:36;;;;;;;1.10;0.98;;;;;;;12.34;89.61;98812.84;6022967;23;20289;-87
2020/12/22 07:42:08;;;;;;;1.10;1.00;;;;;;;12.40;89.64;98812.38;6055570;23;20206;-86
2020/12/22 07:44:35;;;;;;;2.10;1.05;;;;;;;12.41;89.75;98831.16;6010482;23;20234;-87
2020/12/22 07:47:01;;;;;;;1.00;0.80;;;;;;;12.43;89.36;98833.69;6057558;23;20158;-86
2020/12/22 07:49:27;;;;;;;1.30;1.13;;;;;;;12.47;89.24;98829.78;6037884;23;20248;-87
2020/12/22 07:51:53;;;;;;;1.10;1.00;;;;;;;12.46;89.19;98825.38;6030878;23;20715;-86
2020/12/22 07:54:19;;;;;;;1.20;1.10;;;;;;;12.51;88.65;98836.69;6019310;23;20580;-85
2020/12/22 07:56:46;;;;;;;1.30;1.05;;;;;;;12.49;88.43;98834.94;6036293;23;20209;-86
2020/12/22 07:59:14;;;;;;;1.30;1.10;;;;;;;12.58;88.60;98844.16;6035325;23;20233;-86
2020/12/22 08:01:46;;;;;;;1.30;1.15;;;;;;;12.57;88.42;98847.84;6039946;23;20205;-86
2020/12/22 08:04:20;;;;;;;1.58;1.20;;;;;;;12.58;88.67;98845.03;5994642;23;20234;-86
2020/12/22 08:06:57;;;;;;;1.30;1.00;;;;;;;12.62;88.41;98849.19;6030980;23;20233;-86
2020/12/22 08:09:30;;;;;;;1.35;1.25;;;;;;;12.63;88.78;98867.09;6018560;23;20582;-86
2020/12/22 08:11:59;;;;;;;1.40;1.10;;;;;;;12.65;88.78;98865.13;6023598;23;20214;-86
2020/12/22 08:14:38;;;;;;;1.35;1.02;;;;;;;12.62;89.08;98867.22;6010777;23;20240;-86
2020/12/22 08:17:21;;;;;;;1.33;1.05;;;;;;;12.60;89.30;98872.72;6035420;23;20199;-86
2020/12/22 08:19:48;;;;;;;1.27;0.95;;;;;;;12.59;89.03;98873.72;6038212;23;20193;-86
2020/12/22 08:22:16;;;;;;;1.30;0.95;;;;;;;12.61;89.02;98869.03;6031096;23;20232;-86
2020/12/22 08:24:43;;;;;;;1.10;1.00;;;;;;;12.60;89.07;98864.63;6055670;23;20213;-86
2020/12/22 08:27:11;;;;;;;1.50;0.90;;;;;;;12.61;89.08;98877.13;6008472;23;20214;-86
2020/12/22 08:29:39;;;;;;;1.45;1.10;;;;;;;12.66;88.68;98866.84;6020628;23;20285;-86
2020/12/22 08:32:06;;;;;;;1.48;1.38;;;;;;;12.61;88.83;98881.69;6034103;23;20524;-86
2020/12/22 08:34:32;;;;;;;1.35;1.13;;;;;;;12.64;89.11;98876.91;6039264;23;20276;-87
2020/12/22 08:37:10;;;;;;;1.80;1.10;;;;;;;12.77;88.77;98880.38;6035793;23;20301;-86
2020/12/22 08:39:41;;;;;;;1.45;1.35;;;;;;;12.68;88.58;98872.97;6085453;23;20731;-87
2020/12/22 08:42:09;;;;;;;1.20;1.10;;;;;;;12.69;88.38;98857.66;6054500;23;20216;-86
2020/12/22 08:44:35;;;;;;;1.73;1.15;;;;;;;12.82;88.53;98863.81;6110777;23;20216;-86
2020/12/22 08:47:12;;;;;;;1.58;1.40;;;;;;;12.89;88.13;98871.31;6061066;23;20205;-87
2020/12/22 08:49:38;;;;;;;2.17;1.08;;;;;;;12.88;87.83;98880.38;6063036;23;20199;-86
2020/12/22 08:52:19;;;;;;;1.20;1.10;;;;;;;12.88;88.03;98880.38;6076015;23;20208;-87
2020/12/22 08:55:13;;;;;;;1.33;1.20;;;;;;;12.86;88.34;98893.13;6101058;23;20196;-86
2020/12/22 08:57:39;;;;;;;1.60;1.20;;;;;;;12.80;88.26;98881.97;6058861;23;20213;-87
2020/12/22 09:00:16;;;;;;;2.47;1.30;;;;;;;12.84;88.46;98887.00;6045870;23;20219;-86
2020/12/22 09:02:52;;;;;;;1.20;1.10;;;;;;;12.88;88.22;98883.06;6040255;23;20231;-86
2020/12/22 09:05:19;;;;;;;1.30;1.10;;;;;;;12.86;88.01;98887.72;6040008;23;20251;-86
2020/12/22 09:07:57;;;;;;;1.48;1.10;;;;;;;12.84;88.29;98897.78;6042503;23;20191;-87
2020/12/22 09:10:23;;;;;;;1.40;1.10;;;;;;;12.94;87.92;98892.53;6039656;23;20619;-86
2020/12/22 09:12:49;;;;;;;1.30;1.10;;;;;;;12.99;87.96;98902.00;6038972;23;20681;-86
2020/12/22 09:15:16;;;;;;;1.45;1.35;;;;;;;12.99;88.28;98906.56;6032355;23;20551;-86
2020/12/22 09:17:54;;;;;;;;;;;;;;;;;;;;;
2020/12/22 09:20:40;;;;;;;1.30;1.20;;;;;;;12.92;87.97;98895.34;6045282;23;20319;-86
2020/12/22 09:23:07;;;;;;;1.30;1.20;;;;;;;13.01;88.43;98891.97;6026237;23;20199;-87
2020/12/22 09:25:34;;;;;;;1.30;1.20;;;;;;;13.01;88.09;98886.56;6062246;23;20181;-86
2020/12/22 09:28:09;;;;;;;6.45;1.48;;;;;;;13.13;87.36;98899.06;6028860;23;20205;-86
2020/12/22 09:30:44;;;;;;;2.58;1.90;;;;;;;13.24;87.02;98906.34;5993082;23;20283;-86
2020/12/22 09:33:12;;;;;;;1.75;1.30;;;;;;;13.22;86.75;98908.28;6041130;23;20211;-86
2020/12/22 09:35:39;;;;;;;1.38;1.27;;;;;;;13.19;86.75;98911.25;6013198;23;20199;-86
2020/12/22 09:38:18;;;;;;;1.80;1.15;;;;;;;13.28;86.80;98910.50;6008587;23;20156;-90
2020/12/22 09:40:53;;;;;;;1.40;1.30;;;;;;;13.34;85.96;98913.59;6070457;23;20166;-89
2020/12/22 09:43:27;;;;;;;1.30;1.20;;;;;;;13.38;86.09;98922.28;5899645;23;20215;-88
2020/12/22 09:46:17;;;;;;;1.23;1.02;;;;;;;13.49;85.44;98909.63;5994970;23;20209;-88
2020/12/22 09:48:53;;;;;;;1.42;1.13;;;;;;;13.58;85.55;98933.19;6039807;23;20220;-88
2020/12/22 09:51:21;;;;;;;9.27;6.07;;;;;;;13.51;85.59;98928.44;6041099;23;20264;-88
2020/12/22 09:53:50;;;;;;;1.50;1.30;;;;;;;13.60;85.73;98933.94;6048038;23;20208;-88
2020/12/22 09:56:23;;;;;;;1.38;1.27;;;;;;;13.62;85.91;98931.97;6072887;23;20247;-90
2020/12/22 09:58:56;;;;;;;1.42;1.27;;;;;;;13.58;85.80;98944.00;6061025;23;20198;-89
2020/12/22 10:01:26;;;;;;;1.30;1.20;;;;;;;13.51;86.12;98941.94;6002102;23;20268;-89
2020/12/22 10:04:06;;;;;;;1.48;1.38;;;;;;;13.44;86.79;98938.84;6022242;23;20196;-88
2020/12/22 10:06:50;;;;;;;1.50;1.15;;;;;;;13.46;86.76;98942.31;6045516;23;20212;-89
2020/12/22 10:09:27;;;;;;;1.48;1.38;;;;;;;13.49;86.64;98931.25;6055597;23;20228;-87
2020/12/22 10:11:59;;;;;;;1.67;1.58;;;;;;;13.45;87.02;98937.88;6026392;23;20392;-88
2020/12/22 10:14:32;;;;;;;1.60;1.40;;;;;;;13.42;86.93;98937.25;6054517;23;20208;-88
2020/12/22 10:17:19;;;;;;;12.57;9.75;;;;;;;13.48;87.40;98934.94;5994139;23;20232;-89
2020/12/22 10:19:55;;;;;;;1.50;1.40;;;;;;;13.59;86.24;98940.34;6016126;23;20162;-87
2020/12/22 10:22:29;;;;;;;1.70;1.20;;;;;;;13.75;85.70;98948.91;6091041;23;20241;-87
2020/12/22 10:25:00;;;;;;;1.70;1.60;;;;;;;13.72;85.43;98951.88;5942934;23;20221;-88
2020/12/22 10:30:27;;;;;;;1.60;1.20;;;;;;;13.52;85.98;98930.97;5982762;23;20209;-80
2020/12/22 10:32:57;;;;;;;1.60;1.50;;;;;;;13.54;85.97;98934.44;6061195;23;20169;-79
2020/12/22 10:35:23;;;;;;;1.35;1.25;;;;;;;13.65;85.56;98942.56;6038240;23;20213;-81
2020/12/22 10:37:52;;;;;;;1.90;1.17;;;;;;;13.77;85.23;98951.50;6093369;23;20614;-87
2020/12/22 10:40:29;;;;;;;2.15;1.30;;;;;;;13.73;84.94;98945.47;6023787;23;20212;-88
2020/12/22 10:43:00;;;;;;;1.30;1.20;;;;;;;13.78;85.14;98951.38;6049087;23;20211;-87
2020/12/22 10:45:28;;;;;;;1.40;1.30;;;;;;;13.65;85.28;98945.25;6007813;23;20221;-90
2020/12/22 10:48:06;;;;;;;1.38;1.27;;;;;;;13.61;85.88;98946.47;5991763;23;20694;-87
2020/12/22 10:50:38;;;;;;;1.50;1.40;;;;;;;13.56;86.32;98953.25;6032289;23;20215;-87
2020/12/22 10:53:25;;;;;;;1.50;1.40;;;;;;;13.57;86.14;98963.91;5997616;22;20189;-87
2020/12/22 10:55:58;;;;;;;1.80;1.70;;;;;;;13.57;86.05;98955.78;6002407;23;20177;-87
2020/12/22 10:58:50;;;;;;;2.15;1.70;;;;;;;13.48;86.72;98948.44;6044597;23;20241;-87
2020/12/22 11:01:30;;;;;;;2.88;2.58;;;;;;;13.41;87.31;98952.63;6028858;23;20274;-86
2020/12/22 11:03:59;;;;;;;5.43;4.43;;;;;;;13.47;88.16;98954.84;5981031;23;20268;-85
2020/12/22 11:14:46;;;;;;;2.40;1.73;;;;;;;13.48;87.59;98966.47;6040896;23;20216;-88
2020/12/22 11:17:42;;;;;;;1.92;1.75;;;;;;;13.43;87.93;98966.00;5984166;23;20233;-86
2020/12/22 11:21:09;;;;;;;1.52;1.42;;;;;;;13.43;87.42;98966.84;5998554;23;20208;-87
2020/12/22 11:25:03;;;;;;;;;;;;;;;;;;;;;
2020/12/22 11:35:56;;;;;;;2.33;2.03;;;;;;;14.01;85.87;98966.56;6049174;23;20252;-87
2020/12/22 11:41:43;;;;;;;2.33;1.67;;;;;;;14.28;84.54;98964.31;6056702;23;20209;-87
2020/12/22 11:47:58;;;;;;;5.20;2.55;;;;;;;14.11;84.99;98967.53;5990446;23;20196;-87
2020/12/22 11:50:35;;;;;;;4.55;1.60;;;;;;;14.16;85.07;98959.88;6002676;23;20204;-87
2020/12/22 11:53:02;;;;;;;2.08;1.40;;;;;;;14.22;84.67;98959.41;6037414;23;20165;-86
2020/12/22 11:55:56;;;;;;;;;;;;;;;;;;;;;
2020/12/22 11:58:32;;;;;;;2.95;1.70;;;;;;;14.22;84.53;98967.53;6073627;23;20212;-87
2020/12/22 12:01:09;;;;;;;3.20;3.00;;;;;;;14.22;83.92;98964.81;6007561;23;20211;-84
2020/12/22 12:03:36;;;;;;;2.13;1.40;;;;;;;14.18;83.84;98966.06;6043459;23;20272;-83
2020/12/22 12:06:07;;;;;;;1.95;1.75;;;;;;;14.05;84.77;98965.34;6015100;23;20220;-84
2020/12/22 12:08:33;;;;;;;1.40;1.20;;;;;;;14.23;84.80;98965.69;6042654;23;20288;-84
2020/12/22 12:10:59;;;;;;;1.58;1.48;;;;;;;14.21;84.28;98963.09;6039337;23;20165;-84
2020/12/22 12:13:50;;;;;;;1.50;1.40;;;;;;;14.10;84.47;98960.41;6016405;23;20154;-84
2020/12/22 12:20:05;;;;;;;1.92;1.60;;;;;;;13.98;85.33;98966.81;6062762;23;20188;-86
2020/12/22 12:22:32;;;;;;;1.20;1.10;;;;;;;14.04;84.91;98966.31;6086631;23;20156;-85
2020/12/22 12:25:00;;;;;;;1.48;1.30;;;;;;;14.09;84.85;98968.66;6028309;23;20197;-83
2020/12/22 12:27:27;;;;;;;1.60;1.40;;;;;;;14.19;85.04;98970.50;6030099;23;20197;-84
2020/12/22 12:29:53;;;;;;;1.50;1.40;;;;;;;14.19;84.20;98961.50;6031698;23;20265;-86
2020/12/22 12:32:29;;;;;;;1.50;1.40;;;;;;;14.21;84.06;98971.22;6006873;23;20209;-83